createdAt,value
2023-04-21T00:00:10.193Z,0.63
2023-04-21T00:02:40.084Z,0.44
2023-04-21T00:05:12.804Z,0.61
2023-04-21T00:07:41.753Z,0.60
2023-04-21T00:10:11.290Z,0.61
2023-04-21T00:12:39.683Z,0.29
2023-04-21T00:15:10.917Z,0.54
2023-04-21T00:17:39.279Z,0.51
2023-04-21T00:20:11.717Z,0.52
2023-04-21T00:22:39.827Z,0.70
2023-04-21T00:25:08.534Z,0.43
2023-04-21T00:27:36.659Z,0.65
2023-04-21T00:30:05.311Z,0.64
2023-04-21T00:32:33.377Z,0.85
2023-04-21T00:35:01.807Z,0.57
2023-04-21T00:37:31.498Z,0.65
2023-04-21T00:39:59.797Z,0.55
2023-04-21T00:42:28.055Z,0.48
2023-04-21T00:44:56.214Z,0.31
2023-04-21T00:47:24.268Z,0.51
2023-04-21T00:49:52.553Z,0.30
2023-04-21T00:52:20.631Z,0.29
2023-04-21T00:54:50.524Z,0.32
2023-04-21T00:57:21.474Z,0.19
2023-04-21T00:59:49.868Z,0.31
2023-04-21T01:02:20.326Z,0.28
2023-04-21T01:04:48.921Z,0.18
2023-04-21T01:07:17.158Z,0.05
2023-04-21T01:09:45.069Z,0.02
2023-04-21T01:12:14.390Z,0.01
2023-04-21T01:14:42.558Z,-0.06
2023-04-21T01:17:13.614Z,-0.11
2023-04-21T01:19:45.228Z,-0.09
2023-04-21T01:22:15.400Z,-0.12
2023-04-21T01:24:45.536Z,0.02
2023-04-21T01:27:15.057Z,-0.03
2023-04-21T01:29:44.574Z,-0.15
2023-04-21T01:32:15.660Z,-0.13
2023-04-21T01:34:44.573Z,-0.18
2023-04-21T01:37:15.460Z,-0.14
2023-04-21T01:39:45.320Z,-0.22
2023-04-21T01:42:13.592Z,-0.25
2023-04-21T01:44:43.523Z,-0.56
2023-04-21T01:47:12.487Z,-0.38
2023-04-21T01:49:40.313Z,-0.37
2023-04-21T01:52:08.277Z,-0.39
2023-04-21T01:54:37.855Z,-0.29
2023-04-21T01:57:08.946Z,-0.54
2023-04-21T01:59:37.026Z,-0.43
2023-04-21T02:02:05.517Z,-0.51
2023-04-21T02:04:33.733Z,-0.49
2023-04-21T02:07:02.016Z,-0.48
2023-04-21T02:09:30.351Z,-0.54
2023-04-21T02:12:00.558Z,-0.54
2023-04-21T02:14:28.605Z,-0.61
2023-04-21T02:16:57.175Z,-0.65
2023-04-21T02:19:25.390Z,-0.64
2023-04-21T02:21:53.399Z,-0.80
2023-04-21T02:24:21.381Z,-0.49
2023-04-21T02:26:49.324Z,-0.47
2023-04-21T02:29:19.154Z,-0.55
2023-04-21T02:31:58.793Z,-0.48
2023-04-21T02:34:29.277Z,-0.54
2023-04-21T02:36:57.802Z,-0.66
2023-04-21T02:39:25.768Z,-0.74
2023-04-21T02:41:55.537Z,-0.62
2023-04-21T02:44:25.111Z,-0.78
2023-04-21T02:46:53.075Z,-0.78
2023-04-21T02:49:21.181Z,-0.86
2023-04-21T02:51:49.588Z,-0.77
2023-04-21T02:54:17.588Z,-0.84
2023-04-21T02:56:45.589Z,-0.87
2023-04-21T02:59:16.723Z,-0.85
2023-04-21T03:01:46.358Z,-0.92
2023-04-21T03:04:14.582Z,-0.84
2023-04-21T03:06:42.711Z,-0.81
2023-04-21T03:09:10.989Z,-0.73
2023-04-21T03:11:42.043Z,-0.77
2023-04-21T03:14:09.934Z,-0.85
2023-04-21T03:16:37.940Z,-0.72
2023-04-21T03:19:07.497Z,-1.04
2023-04-21T03:21:38.487Z,-0.90
2023-04-21T03:24:07.675Z,-0.99
2023-04-21T03:26:35.819Z,-1.04
2023-04-21T03:29:03.836Z,-0.93
2023-04-21T03:31:31.883Z,-0.83
2023-04-21T03:33:59.911Z,-1.26
2023-04-21T03:36:29.402Z,-0.89
2023-04-21T03:39:05.955Z,-0.92
2023-04-21T03:41:41.168Z,-0.90
2023-04-21T03:44:09.268Z,-0.83
2023-04-21T03:46:40.092Z,-0.82
2023-04-21T03:49:08.235Z,-0.87
2023-04-21T03:51:37.690Z,-0.83
2023-04-21T03:54:05.942Z,-0.83
2023-04-21T03:56:34.099Z,-0.68
2023-04-21T03:59:02.270Z,-0.66
2023-04-21T04:01:30.294Z,-0.56
2023-04-21T04:03:58.613Z,-0.36
2023-04-21T04:06:26.784Z,-0.23
2023-04-21T04:08:56.111Z,-0.20
2023-04-21T04:11:24.193Z,-0.16
2023-04-21T04:13:52.196Z,-0.30
2023-04-21T04:16:20.220Z,0.04
2023-04-21T04:18:48.347Z,0.16
2023-04-21T04:21:16.403Z,0.29
2023-04-21T04:23:44.422Z,0.40
2023-04-21T04:26:13.837Z,0.55
2023-04-21T04:28:42.395Z,0.67
2023-04-21T04:31:10.323Z,0.71
2023-04-21T04:33:42.209Z,0.89
2023-04-21T04:36:10.544Z,1.05
2023-04-21T04:38:38.709Z,1.22
2023-04-21T04:41:09.155Z,1.40
2023-04-21T04:43:39.095Z,1.54
2023-04-21T04:46:09.088Z,1.76
2023-04-21T04:48:37.270Z,1.95
2023-04-21T04:51:05.423Z,2.12
2023-04-21T04:53:33.577Z,2.37
2023-04-21T04:56:01.701Z,2.83
2023-04-21T04:58:29.700Z,3.24
2023-04-21T05:00:59.046Z,3.47
2023-04-21T05:03:27.146Z,4.38
2023-04-21T05:05:57.546Z,5.64
2023-04-21T05:08:25.494Z,5.92
2023-04-21T05:10:53.613Z,6.96
2023-04-21T05:13:21.706Z,7.74
2023-04-21T05:15:49.585Z,8.15
2023-04-21T05:18:19.090Z,7.64
2023-04-21T05:20:47.030Z,7.62
2023-04-21T05:23:14.967Z,8.11
2023-04-21T05:25:43.032Z,7.37
2023-04-21T05:28:10.962Z,7.10
2023-04-21T05:30:38.932Z,6.77
2023-04-21T05:33:07.006Z,6.69
2023-04-21T05:35:38.026Z,6.68
2023-04-21T05:38:06.837Z,6.80
2023-04-21T05:40:34.920Z,6.87
2023-04-21T05:43:02.815Z,7.08
2023-04-21T05:45:30.754Z,7.23
2023-04-21T05:47:58.860Z,7.47
2023-04-21T05:50:34.032Z,7.57
2023-04-21T05:53:03.576Z,7.78
2023-04-21T05:55:31.629Z,7.96
2023-04-21T05:57:59.552Z,8.17
2023-04-21T06:00:27.930Z,8.29
2023-04-21T06:02:56.028Z,8.38
2023-04-21T06:05:24.396Z,8.47
2023-04-21T06:07:52.661Z,8.70
2023-04-21T06:10:22.252Z,8.94
2023-04-21T06:12:50.553Z,8.95
2023-04-21T06:15:18.830Z,9.16
2023-04-21T06:17:46.946Z,9.31
2023-04-21T06:20:14.928Z,9.35
2023-04-21T06:22:43.105Z,9.47
2023-04-21T06:25:11.109Z,9.55
2023-04-21T06:27:40.672Z,9.84
2023-04-21T06:30:10.099Z,9.90
2023-04-21T06:32:38.212Z,9.97
2023-04-21T06:35:06.490Z,9.94
2023-04-21T06:37:37.687Z,9.99
2023-04-21T06:40:06.275Z,10.34
2023-04-21T06:42:34.262Z,10.45
2023-04-21T06:45:03.813Z,10.58
2023-04-21T06:47:32.204Z,10.89
2023-04-21T06:50:00.182Z,11.17
2023-04-21T06:52:28.376Z,11.37
2023-04-21T06:54:56.317Z,11.55
2023-04-21T06:57:24.345Z,11.73
2023-04-21T06:59:58.204Z,11.97
2023-04-21T07:02:39.596Z,11.90
2023-04-21T07:05:08.219Z,12.11
2023-04-21T07:07:50.478Z,12.25
2023-04-21T07:10:20.082Z,12.25
2023-04-21T07:13:05.108Z,12.42
2023-04-21T07:15:51.307Z,12.74
2023-04-21T07:18:22.324Z,12.87
2023-04-21T07:20:50.327Z,13.04
2023-04-21T07:23:18.368Z,13.09
2023-04-21T07:25:46.612Z,13.16
2023-04-21T07:28:15.307Z,13.38
2023-04-21T07:30:43.515Z,13.50
2023-04-21T07:33:12.113Z,13.92
2023-04-21T07:35:41.724Z,14.00
2023-04-21T07:38:09.882Z,14.02
2023-04-21T07:40:38.289Z,13.60
2023-04-21T07:43:06.319Z,13.97
2023-04-21T07:45:34.325Z,14.40
2023-04-21T07:48:02.385Z,14.66
2023-04-21T07:50:30.492Z,14.59
2023-04-21T07:52:59.767Z,14.39
2023-04-21T07:55:27.784Z,14.55
2023-04-21T07:57:56.135Z,14.36
2023-04-21T08:00:24.266Z,14.17
2023-04-21T08:02:52.601Z,14.42
2023-04-21T08:05:21.105Z,14.46
2023-04-21T08:07:49.094Z,14.45
2023-04-21T08:10:18.517Z,14.85
2023-04-21T08:12:46.752Z,14.95
2023-04-21T08:15:14.709Z,15.05
2023-04-21T08:17:42.678Z,15.22
2023-04-21T08:20:11.791Z,15.07
2023-04-21T08:22:39.755Z,15.01
2023-04-21T08:25:08.636Z,15.04
2023-04-21T08:27:40.601Z,15.21
2023-04-21T08:30:10.514Z,15.17
2023-04-21T08:32:38.571Z,15.45
2023-04-21T08:35:07.329Z,15.63
2023-04-21T08:37:37.851Z,15.53
2023-04-21T08:40:07.016Z,15.83
2023-04-21T08:42:37.112Z,15.67
2023-04-21T08:45:07.521Z,15.88
2023-04-21T08:47:36.210Z,15.93
2023-04-21T08:50:04.613Z,15.95
2023-04-21T08:52:32.577Z,15.64
2023-04-21T08:55:01.657Z,15.96
2023-04-21T08:57:29.808Z,16.07
2023-04-21T08:59:57.732Z,15.93
2023-04-21T09:02:27.184Z,16.36
2023-04-21T09:04:56.190Z,16.35
2023-04-21T09:07:34.839Z,16.50
2023-04-21T09:10:03.433Z,16.58
2023-04-21T09:12:31.852Z,16.15
2023-04-21T09:15:01.038Z,15.94
2023-04-21T09:17:33.901Z,16.49
2023-04-21T09:20:15.445Z,16.66
2023-04-21T09:22:43.942Z,16.87
2023-04-21T09:25:12.063Z,16.78
2023-04-21T09:27:40.095Z,16.66
2023-04-21T09:30:10.799Z,17.13
2023-04-21T09:32:41.735Z,17.36
2023-04-21T09:35:11.894Z,16.85
2023-04-21T09:37:40.374Z,16.91
2023-04-21T09:40:09.044Z,17.01
2023-04-21T09:42:39.674Z,17.31
2023-04-21T09:45:29.122Z,17.11
2023-04-21T09:48:00.866Z,17.08
2023-04-21T09:53:04.888Z,17.04
2023-04-21T09:55:33.658Z,17.35
2023-04-21T09:58:05.438Z,16.66
2023-04-21T10:00:39.371Z,16.87
2023-04-21T10:03:12.317Z,16.94
2023-04-21T10:05:42.819Z,17.23
2023-04-21T10:08:12.685Z,16.49
2023-04-21T10:10:41.268Z,16.99
2023-04-21T10:13:15.973Z,17.38
2023-04-21T10:15:44.352Z,17.54
2023-04-21T10:18:19.232Z,17.34
2023-04-21T10:20:55.203Z,16.42
2023-04-21T10:23:34.119Z,16.79
2023-04-21T10:26:07.994Z,17.53
2023-04-21T10:28:59.390Z,17.98
2023-04-21T10:31:33.058Z,17.87
2023-04-21T10:34:22.403Z,17.92
2023-04-21T10:37:11.205Z,17.85
2023-04-21T10:39:45.019Z,17.78
2023-04-21T10:42:25.211Z,17.64
2023-04-21T10:44:55.188Z,17.79
2023-04-21T10:47:27.408Z,17.48
2023-04-21T10:49:57.869Z,17.94
2023-04-21T10:52:33.974Z,17.40
2023-04-21T10:55:12.651Z,17.21
2023-04-21T10:57:45.184Z,17.33
2023-04-21T11:00:17.681Z,17.39
2023-04-21T11:02:46.518Z,17.45
2023-04-21T11:05:16.229Z,16.94
2023-04-21T11:07:44.356Z,17.35
2023-04-21T11:10:12.573Z,18.09
2023-04-21T11:12:41.794Z,18.09
2023-04-21T11:15:11.957Z,18.08
2023-04-21T11:17:43.393Z,17.93
2023-04-21T11:20:11.586Z,18.10
2023-04-21T11:22:41.109Z,17.79
2023-04-21T11:25:19.096Z,17.47
2023-04-21T11:27:57.486Z,18.54
2023-04-21T11:30:32.910Z,19.00
2023-04-21T11:33:01.444Z,19.19
2023-04-21T11:35:29.452Z,18.65
2023-04-21T11:37:58.801Z,17.87
2023-04-21T11:40:26.930Z,17.34
2023-04-21T11:42:55.939Z,17.62
2023-04-21T11:45:24.041Z,17.85
2023-04-21T11:47:52.185Z,18.18
2023-04-21T11:50:32.634Z,18.03
2023-04-21T11:53:03.617Z,17.86
2023-04-21T11:55:31.614Z,17.74
2023-04-21T11:58:00.037Z,17.78
2023-04-21T12:00:31.962Z,17.59
2023-04-21T12:02:59.968Z,17.95
2023-04-21T12:05:36.637Z,18.26
2023-04-21T12:08:06.475Z,18.22
2023-04-21T12:10:35.016Z,18.14
2023-04-21T12:13:03.114Z,18.56
2023-04-21T12:15:34.811Z,18.90
2023-04-21T12:18:02.707Z,18.59
2023-04-21T12:20:31.339Z,17.94
2023-04-21T12:23:01.088Z,18.64
2023-04-21T12:25:30.743Z,18.43
2023-04-21T12:27:59.971Z,18.39
2023-04-21T12:30:27.928Z,19.05
2023-04-21T12:32:55.962Z,18.75
2023-04-21T12:35:24.718Z,18.71
2023-04-21T12:37:52.662Z,18.43
2023-04-21T12:40:20.778Z,18.52
2023-04-21T12:42:50.130Z,18.76
2023-04-21T12:45:18.259Z,18.46
2023-04-21T12:47:47.086Z,18.66
2023-04-21T12:50:15.791Z,18.35
2023-04-21T12:52:43.695Z,18.13
2023-04-21T12:55:13.398Z,18.63
2023-04-21T12:57:41.496Z,18.34
2023-04-21T13:00:12.967Z,18.56
2023-04-21T13:02:40.962Z,18.77
2023-04-21T13:05:12.067Z,19.31
2023-04-21T13:07:40.330Z,19.30
2023-04-21T13:10:08.988Z,19.73
2023-04-21T13:12:37.107Z,19.19
2023-04-21T13:15:06.036Z,18.52
2023-04-21T13:17:35.418Z,18.13
2023-04-21T13:20:04.846Z,18.92
2023-04-21T13:22:32.809Z,19.28
2023-04-21T13:25:00.708Z,19.41
2023-04-21T13:27:29.006Z,19.54
2023-04-21T13:29:58.158Z,19.65
2023-04-21T13:32:26.421Z,19.82
2023-04-21T13:34:55.942Z,19.44
2023-04-21T13:37:23.883Z,19.57
2023-04-21T13:39:51.960Z,19.68
2023-04-21T13:42:22.236Z,19.71
2023-04-21T13:44:50.072Z,19.50
2023-04-21T13:47:18.669Z,19.75
2023-04-21T13:49:46.996Z,19.65
2023-04-21T13:52:16.438Z,19.67
2023-04-21T13:54:44.728Z,20.09
2023-04-21T13:57:12.775Z,19.77
2023-04-21T13:59:41.806Z,20.28
2023-04-21T14:02:09.903Z,20.37
2023-04-21T14:04:38.394Z,20.10
2023-04-21T14:07:08.080Z,20.11
2023-04-21T14:09:37.378Z,20.03
2023-04-21T14:12:05.589Z,20.30
2023-04-21T14:17:05.758Z,20.31
2023-04-21T14:19:34.368Z,20.37
2023-04-21T14:22:02.661Z,20.33
2023-04-21T14:24:32.564Z,19.75
2023-04-21T14:27:02.377Z,20.26
2023-04-21T14:29:30.406Z,19.84
2023-04-21T14:31:59.493Z,19.77
2023-04-21T14:34:27.974Z,19.77
2023-04-21T14:36:56.136Z,19.73
2023-04-21T14:39:24.371Z,19.65
2023-04-21T14:41:52.744Z,19.86
2023-04-21T14:44:22.198Z,19.45
2023-04-21T14:47:01.014Z,19.37
2023-04-21T14:49:37.344Z,19.92
2023-04-21T14:52:05.614Z,19.72
2023-04-21T14:54:33.614Z,19.26
2023-04-21T14:57:16.932Z,18.80
2023-04-21T15:00:51.214Z,19.09
2023-04-21T15:03:20.972Z,18.78
2023-04-21T15:05:49.293Z,19.13
2023-04-21T15:08:18.416Z,19.09
2023-04-21T15:10:47.706Z,19.13
2023-04-21T15:13:16.096Z,19.24
2023-04-21T15:15:44.185Z,19.39
2023-04-21T15:18:12.309Z,19.52
2023-04-21T15:20:45.834Z,19.46
2023-04-21T15:23:14.209Z,19.88
2023-04-21T15:25:42.981Z,19.87
2023-04-21T15:28:11.196Z,19.39
2023-04-21T15:30:39.422Z,19.56
2023-04-21T15:33:07.622Z,19.77
2023-04-21T15:35:36.416Z,19.83
2023-04-21T15:38:15.689Z,20.18
2023-04-21T15:40:59.156Z,19.65
2023-04-21T15:43:28.131Z,19.19
2023-04-21T15:45:56.172Z,19.06
2023-04-21T15:48:24.225Z,18.94
2023-04-21T15:50:52.496Z,18.48
2023-04-21T15:53:21.834Z,18.25
2023-04-21T15:55:50.522Z,18.20
2023-04-21T15:58:18.906Z,17.75
2023-04-21T16:00:47.050Z,18.03
2023-04-21T16:03:15.309Z,18.59
2023-04-21T16:05:45.141Z,18.97
2023-04-21T16:08:13.136Z,18.86
2023-04-21T16:10:42.432Z,18.67
2023-04-21T16:13:10.686Z,18.32
2023-04-21T16:15:38.761Z,18.37
2023-04-21T16:18:08.393Z,18.50
2023-04-21T16:20:38.809Z,18.99
2023-04-21T16:23:07.171Z,19.19
2023-04-21T16:25:35.420Z,20.15
2023-04-21T16:28:06.551Z,19.78
2023-04-21T16:30:35.174Z,20.34
2023-04-21T16:33:03.332Z,20.43
2023-04-21T16:35:32.034Z,19.63
2023-04-21T16:38:00.113Z,18.69
2023-04-21T16:40:28.427Z,19.18
2023-04-21T16:42:56.605Z,19.46
2023-04-21T16:45:26.061Z,18.48
2023-04-21T16:47:54.167Z,17.92
2023-04-21T16:50:22.563Z,17.31
2023-04-21T16:52:50.621Z,16.75
2023-04-21T16:55:18.949Z,16.66
2023-04-21T16:57:47.417Z,16.09
2023-04-21T17:00:16.627Z,16.06
2023-04-21T17:02:46.270Z,15.69
2023-04-21T17:05:15.968Z,15.52
2023-04-21T17:07:45.045Z,15.46
2023-04-21T17:10:13.009Z,15.12
2023-04-21T17:12:42.334Z,14.85
2023-04-21T17:15:11.782Z,15.14
2023-04-21T17:17:43.701Z,14.89
2023-04-21T17:20:15.116Z,14.87
2023-04-21T17:22:43.380Z,14.74
2023-04-21T17:25:12.253Z,14.61
2023-04-21T17:27:40.939Z,14.50
2023-04-21T17:30:12.927Z,14.38
2023-04-21T17:32:41.745Z,14.46
2023-04-21T17:35:10.426Z,14.29
2023-04-21T17:37:40.013Z,14.23
2023-04-21T17:40:09.794Z,14.12
2023-04-21T17:42:37.791Z,13.91
2023-04-21T17:45:07.711Z,13.61
2023-04-21T17:47:36.004Z,13.58
2023-04-21T17:50:04.309Z,13.70
2023-04-21T17:52:32.470Z,13.38
2023-04-21T17:55:02.193Z,13.33
2023-04-21T17:57:30.937Z,13.36
2023-04-21T17:59:58.946Z,13.18
2023-04-21T18:02:27.440Z,13.18
2023-04-21T18:04:55.699Z,12.88
2023-04-21T18:07:23.831Z,12.81
2023-04-21T18:09:52.498Z,12.84
2023-04-21T18:12:21.951Z,12.55
2023-04-21T18:14:50.024Z,12.48
2023-04-21T18:17:18.307Z,12.25
2023-04-21T18:19:46.184Z,12.26
2023-04-21T18:22:14.035Z,12.08
2023-04-21T18:24:42.134Z,11.57
2023-04-21T18:27:11.183Z,11.57
2023-04-21T18:29:40.565Z,11.52
2023-04-21T18:32:08.757Z,11.18
2023-04-21T18:34:37.131Z,11.16
2023-04-21T18:37:05.285Z,10.84
2023-04-21T18:39:33.440Z,10.57
2023-04-21T18:42:01.577Z,10.59
2023-04-21T18:44:30.037Z,10.30
2023-04-21T18:46:59.682Z,9.83
2023-04-21T18:49:27.817Z,9.75
2023-04-21T18:51:55.813Z,9.51
2023-04-21T18:54:23.917Z,9.43
2023-04-21T18:56:51.830Z,9.32
2023-04-21T18:59:22.127Z,9.15
2023-04-21T19:01:50.514Z,8.94
2023-04-21T19:04:20.175Z,9.40
2023-04-21T19:06:51.097Z,8.65
2023-04-21T19:09:23.964Z,8.56
2023-04-21T19:11:52.151Z,8.31
2023-04-21T19:14:20.039Z,8.50
2023-04-21T19:16:48.906Z,8.35
2023-04-21T19:19:16.875Z,8.32
2023-04-21T19:21:46.142Z,8.38
2023-04-21T19:24:20.432Z,8.42
2023-04-21T19:26:50.480Z,8.69
2023-04-21T19:29:26.089Z,8.79
2023-04-21T19:31:54.755Z,8.63
2023-04-21T19:34:25.834Z,8.49
2023-04-21T19:37:01.106Z,8.14
2023-04-21T19:39:29.762Z,7.76
2023-04-21T19:41:58.454Z,7.63
2023-04-21T19:44:26.412Z,7.63
2023-04-21T19:46:54.468Z,7.47
2023-04-21T19:49:22.460Z,7.39
2023-04-21T19:51:50.879Z,7.22
2023-04-21T19:54:20.651Z,7.32
2023-04-21T19:56:48.766Z,7.17
2023-04-21T19:59:16.812Z,7.02
2023-04-21T20:01:44.928Z,6.97
2023-04-21T20:04:13.180Z,6.69
2023-04-21T20:06:41.666Z,6.66
2023-04-21T20:09:10.490Z,6.55
2023-04-21T20:11:40.349Z,6.45
2023-04-21T20:14:30.391Z,6.28
2023-04-21T20:16:58.633Z,6.18
2023-04-21T20:19:31.039Z,6.39
2023-04-21T20:21:59.609Z,6.27
2023-04-21T20:24:27.799Z,6.01
2023-04-21T20:27:00.603Z,5.90
2023-04-21T20:29:28.622Z,5.74
2023-04-21T20:31:57.457Z,5.70
2023-04-21T20:34:25.710Z,5.91
2023-04-21T20:36:54.883Z,6.15
2023-04-21T20:39:22.937Z,5.89
2023-04-21T20:41:58.123Z,5.82
2023-04-21T20:44:34.328Z,5.75
2023-04-21T20:47:02.758Z,5.69
2023-04-21T20:49:30.757Z,5.45
2023-04-21T20:51:59.235Z,5.32
2023-04-21T20:54:27.559Z,5.77
2023-04-21T20:56:55.774Z,5.40
2023-04-21T20:59:23.918Z,5.20
2023-04-21T21:01:53.369Z,5.02
2023-04-21T21:04:21.449Z,4.91
2023-04-21T21:06:49.591Z,4.81
2023-04-21T21:09:19.160Z,4.73
2023-04-21T21:11:47.133Z,4.44
2023-04-21T21:14:15.187Z,4.62
2023-04-21T21:16:43.353Z,5.18
2023-04-21T21:19:13.173Z,4.81
2023-04-21T21:21:41.317Z,4.69
2023-04-21T21:24:09.402Z,4.68
2023-04-21T21:26:37.314Z,4.63
2023-04-21T21:29:05.472Z,4.48
2023-04-21T21:31:33.557Z,4.32
2023-04-21T21:34:03.878Z,4.29
2023-04-21T21:36:34.238Z,3.89
2023-04-21T21:39:02.245Z,4.26
2023-04-21T21:41:30.152Z,4.09
2023-04-21T21:43:58.188Z,4.09
2023-04-21T21:46:26.326Z,3.92
2023-04-21T21:48:54.287Z,3.85
2023-04-21T21:51:22.338Z,3.86
2023-04-21T21:53:51.757Z,3.72
2023-04-21T21:56:20.027Z,3.66
2023-04-21T21:58:48.396Z,3.60
2023-04-21T22:01:18.281Z,3.61
2023-04-21T22:03:47.465Z,3.60
2023-04-21T22:06:17.348Z,3.43
2023-04-21T22:08:45.698Z,3.41
2023-04-21T22:11:15.150Z,3.48
2023-04-21T22:13:43.197Z,3.40
2023-04-21T22:16:11.223Z,3.36
2023-04-21T22:18:39.222Z,3.22
2023-04-21T22:21:07.364Z,3.11
2023-04-21T22:23:35.665Z,3.13
2023-04-21T22:26:03.608Z,3.15
2023-04-21T22:28:32.975Z,3.28
2023-04-21T22:31:01.483Z,3.13
2023-04-21T22:33:29.497Z,2.57
2023-04-21T22:35:57.434Z,3.01
2023-04-21T22:38:25.837Z,2.90
2023-04-21T22:40:53.847Z,2.90
2023-04-21T22:43:21.986Z,2.83
2023-04-21T22:45:51.571Z,2.78
2023-04-21T22:48:19.482Z,2.74
2023-04-21T22:50:47.482Z,2.87
2023-04-21T22:53:15.764Z,2.56
2023-04-21T22:55:43.783Z,2.86
2023-04-21T22:58:14.396Z,2.26
2023-04-21T23:00:44.572Z,2.66
2023-04-21T23:03:14.140Z,2.67
2023-04-21T23:05:44.325Z,2.51
2023-04-21T23:08:12.546Z,2.44
2023-04-21T23:10:40.555Z,2.52
2023-04-21T23:13:08.502Z,2.38
2023-04-21T23:15:37.032Z,2.27
2023-04-21T23:18:05.203Z,2.30
2023-04-21T23:20:34.610Z,2.21
2023-04-21T23:23:02.856Z,2.20
2023-04-21T23:25:30.922Z,2.26
2023-04-21T23:27:59.011Z,2.26
2023-04-21T23:30:27.149Z,2.13
2023-04-21T23:32:55.945Z,2.23
2023-04-21T23:35:23.955Z,2.13
2023-04-21T23:37:53.679Z,2.05
2023-04-21T23:40:21.779Z,2.02
2023-04-21T23:42:50.129Z,2.07
2023-04-21T23:45:18.252Z,1.96
2023-04-21T23:47:46.694Z,2.06
2023-04-21T23:50:14.773Z,1.87
2023-04-21T23:52:44.274Z,1.89
2023-04-21T23:55:13.935Z,1.87
2023-04-21T23:57:44.531Z,1.80
